Report METAR

 

LIML - Milano/Linate, Italy
Distance from station: NO 27km
Dati ricevuti: 25/10/2021 08:50
Molto nuvoloso
Molto nuvoloso
 Vento da Variabile
Vento: Variabile 4 km/h
Temperatura: 10°C
P.to Rugiada: 8°C
Umidità: 88%
Barometro: 1024 hPa
Nuvole: Molto nuvoloso
Visibility: 10 km
Cloud details: Molto nuvoloso 2438 m
2021/10/25 06:50 LIML 250650Z VRB02KT 9999 BKN080 10/08 Q1024 NOSIG
LIME - Bergamo/Orio Ser, Italy
Distance from station: NNE 43km
Dati ricevuti: 25/10/2021 08:50
Sereno
Sereno
 Vento da N
Vento: N 6 km/h
Temperatura: 9°C
P.to Rugiada: 8°C
Umidità: 94%
Barometro: 1024 hPa
Summary: Sereno
Visibility: superiore a 10 km
2021/10/25 06:50 LIME 250650Z 36003KT CAVOK 09/08 Q1024 NOSIG
 
LIMS - Piacenza, it-Afb, Italy
Distance from station: SSE 45km
Dati ricevuti: 25/10/2021 08:55
Sereno
Sereno
 Vento da calmo
Vento: Calma
Temperatura: 8°C
P.to Rugiada: 8°C
Umidità: 100%
Barometro: 1024 hPa
Summary: Sereno
Visibility: superiore a 10 km
2021/10/25 06:55 LIMS 250655Z 00000KT CAVOK 08/08 Q1024
LIPO - Brescia/Montichi, Italy
Distance from station: ENE 65km
Dati ricevuti: 25/10/2021 08:50
Few Clouds
Few Clouds
 Vento da Variabile
Vento: Variabile 2 km/h
Temperatura: 9°C
P.to Rugiada: 7°C
Umidità: 87%
Barometro: 1025 hPa
Nuvole: Few Clouds
Visibility: 10 km
Cloud details: Few Clouds 6096 m
2021/10/25 06:50 LIPO 250650Z AUTO VRB01KT 9999 FEW200/// 09/07 Q1025